createdAt,value
2019-02-04T00:00:28.411Z,27.6
2019-02-04T00:01:17.945Z,27.6
2019-02-04T00:02:07.946Z,27.6
2019-02-04T00:02:58.577Z,27.5
2019-02-04T00:03:48.935Z,27.5
2019-02-04T00:04:38.722Z,27.5
2019-02-04T00:05:28.472Z,27.5
2019-02-04T00:06:18.528Z,27.4
2019-02-04T00:07:12.775Z,27.5
2019-02-04T00:07:59.023Z,27.4
2019-02-04T00:08:48.730Z,27.4
2019-02-04T00:09:39.170Z,27.4
2019-02-04T00:10:28.938Z,27.4
2019-02-04T00:11:18.967Z,27.4
2019-02-04T00:12:09.210Z,27.4
2019-02-04T00:12:58.997Z,27.4
2019-02-04T00:13:49.339Z,27.4
2019-02-04T00:14:39.404Z,27.4
2019-02-04T00:15:29.514Z,27.4
2019-02-04T00:16:21.677Z,27.4
2019-02-04T00:17:09.557Z,27.4
2019-02-04T00:17:59.073Z,27.4
2019-02-04T00:18:48.952Z,27.4
2019-02-04T00:19:39.727Z,27.4
2019-02-04T00:20:28.964Z,27.4
2019-02-04T00:21:19.693Z,27.3
2019-02-04T00:22:09.911Z,27.4
2019-02-04T00:22:59.947Z,27.3
2019-02-04T00:23:49.749Z,27.3
2019-02-04T00:24:40.392Z,27.3
2019-02-04T00:25:31.864Z,27.3
2019-02-04T00:26:19.676Z,27.3
2019-02-04T00:27:10.746Z,27.3
2019-02-04T00:28:00.916Z,27.3
2019-02-04T00:28:51.276Z,27.3
2019-02-04T00:29:40.461Z,27.3
2019-02-04T00:30:30.441Z,27.3
2019-02-04T00:31:20.548Z,27.3
2019-02-04T00:32:10.868Z,27.3
2019-02-04T00:33:00.991Z,27.3
2019-02-04T00:33:51.226Z,27.3
2019-02-04T00:34:42.059Z,27.3
2019-02-04T00:35:30.830Z,27.2
2019-02-04T00:36:21.141Z,27.3
2019-02-04T00:37:10.668Z,27.2
2019-02-04T00:38:02.458Z,27.2
2019-02-04T00:38:51.588Z,27.2
2019-02-04T00:39:40.548Z,27.2
2019-02-04T00:40:46.068Z,27.2
2019-02-04T00:41:21.485Z,27.2
2019-02-04T00:42:10.530Z,27.2
2019-02-04T00:43:01.929Z,27.2
2019-02-04T00:43:52.763Z,27.2
2019-02-04T00:44:41.418Z,27.1
2019-02-04T00:45:32.122Z,27.1
2019-02-04T00:46:21.915Z,27.2
2019-02-04T00:47:13.487Z,27.2
2019-02-04T00:48:02.030Z,27.1
2019-02-04T00:48:52.084Z,27.1
2019-02-04T00:49:42.317Z,27.1
2019-02-04T00:50:31.830Z,27.1
2019-02-04T00:51:22.570Z,27.1
2019-02-04T00:52:11.969Z,27.1
2019-02-04T00:53:03.372Z,27.1
2019-02-04T00:53:52.645Z,27.1
2019-02-04T00:54:56.517Z,27.1
2019-02-04T00:55:32.527Z,27.1
2019-02-04T00:56:24.627Z,27.1
2019-02-04T00:57:12.357Z,27.1
2019-02-04T00:58:02.643Z,27.1
2019-02-04T00:58:53.077Z,27.1
2019-02-04T00:59:42.210Z,27.1
2019-02-04T01:00:33.197Z,27
2019-02-04T01:01:22.596Z,27
2019-02-04T01:02:13.662Z,27
2019-02-04T01:03:02.251Z,27
2019-02-04T01:03:53.307Z,27
2019-02-04T01:04:43.389Z,27
2019-02-04T01:05:35.104Z,27
2019-02-04T01:06:23.551Z,27
2019-02-04T01:07:13.019Z,27
2019-02-04T01:08:03.324Z,26.9
2019-02-04T01:08:53.386Z,27
2019-02-04T01:09:43.166Z,27
2019-02-04T01:10:33.924Z,27
2019-02-04T01:11:24.008Z,26.9
2019-02-04T01:12:13.911Z,26.9
2019-02-04T01:13:03.968Z,27
2019-02-04T01:13:53.738Z,26.9
2019-02-04T01:14:46.154Z,26.9
2019-02-04T01:15:33.135Z,26.9
2019-02-04T01:16:24.270Z,26.9
2019-02-04T01:17:14.377Z,26.9
2019-02-04T01:18:03.702Z,26.9
2019-02-04T01:18:54.117Z,26.9
2019-02-04T01:19:44.314Z,26.9
2019-02-04T01:20:33.692Z,26.9
2019-02-04T01:21:23.942Z,26.9
2019-02-04T01:22:14.224Z,26.9
2019-02-04T01:23:04.612Z,26.9
2019-02-04T01:23:56.667Z,26.9
2019-02-04T01:24:43.869Z,26.9
2019-02-04T01:25:34.548Z,26.9
2019-02-04T01:26:23.711Z,26.9
2019-02-04T01:27:15.080Z,26.9
2019-02-04T01:28:04.136Z,26.9
2019-02-04T01:28:54.414Z,26.9
2019-02-04T01:29:44.761Z,26.9
2019-02-04T01:30:35.122Z,26.9
2019-02-04T01:31:24.038Z,26.8
2019-02-04T01:32:14.963Z,26.8
2019-02-04T01:33:06.174Z,26.8
2019-02-04T01:33:55.448Z,26.8
2019-02-04T01:34:45.398Z,26.8
2019-02-04T01:35:35.302Z,26.8
2019-02-04T01:36:26.839Z,26.8
2019-02-04T01:37:14.810Z,26.8
2019-02-04T01:38:05.121Z,26.8
2019-02-04T01:38:55.411Z,26.8
2019-02-04T01:39:45.477Z,26.8
2019-02-04T01:40:35.820Z,26.8
2019-02-04T01:41:25.570Z,26.8
2019-02-04T01:42:15.900Z,26.8
2019-02-04T01:43:05.960Z,26.8
2019-02-04T01:43:55.483Z,26.8
2019-02-04T01:44:44.971Z,26.8
2019-02-04T01:45:38.122Z,26.8
2019-02-04T01:46:25.935Z,26.8
2019-02-04T01:47:23.098Z,26.8
2019-02-04T01:48:05.535Z,26.8
2019-02-04T01:48:56.365Z,26.7
2019-02-04T01:49:45.855Z,26.8
2019-02-04T01:50:35.955Z,26.8
2019-02-04T01:51:25.855Z,26.8
2019-02-04T01:52:31.300Z,26.7
2019-02-04T01:53:06.388Z,26.7
2019-02-04T01:53:56.435Z,26.8
2019-02-04T01:54:48.659Z,26.7
2019-02-04T01:55:36.559Z,26.7
2019-02-04T01:56:26.652Z,26.7
2019-02-04T01:57:16.767Z,26.7
2019-02-04T01:58:06.478Z,26.7
2019-02-04T01:58:56.828Z,26.7
2019-02-04T01:59:46.669Z,26.7
2019-02-04T02:00:36.444Z,26.7
2019-02-04T02:01:26.971Z,26.8
2019-02-04T02:02:16.215Z,26.8
2019-02-04T02:03:07.229Z,26.8
2019-02-04T02:03:58.989Z,26.9
2019-02-04T02:04:47.203Z,27
2019-02-04T02:05:36.167Z,27.1
2019-02-04T02:06:26.466Z,27.3
2019-02-04T02:07:17.834Z,27.3
2019-02-04T02:08:06.964Z,27.4
2019-02-04T02:08:57.224Z,27.5
2019-02-04T02:09:47.000Z,27.7
2019-02-04T02:10:36.831Z,27.8
2019-02-04T02:12:16.884Z,27.9
2019-02-04T02:13:08.916Z,28
2019-02-04T02:13:56.998Z,28.1
2019-02-04T02:14:47.901Z,28.2
2019-02-04T02:15:37.681Z,28.3
2019-02-04T02:16:32.259Z,28.4
2019-02-04T02:17:29.936Z,28.4
2019-02-04T02:18:08.459Z,28.6
2019-02-04T02:18:57.901Z,28.6
2019-02-04T02:19:48.383Z,28.7
2019-02-04T02:20:38.335Z,28.8
2019-02-04T02:21:28.373Z,28.9
2019-02-04T02:22:19.075Z,28.9
2019-02-04T02:23:08.518Z,28.9
2019-02-04T02:23:58.302Z,29
2019-02-04T02:24:47.883Z,29.1
2019-02-04T02:25:40.900Z,29.1
2019-02-04T02:26:28.695Z,29.2
2019-02-04T02:27:18.813Z,29.3
2019-02-04T02:28:08.857Z,29.4
2019-02-04T02:28:59.125Z,29.4
2019-02-04T02:29:48.780Z,29.5
2019-02-04T02:30:39.134Z,29.5
2019-02-04T02:31:29.405Z,29.6
2019-02-04T02:32:18.904Z,29.6
2019-02-04T02:33:09.652Z,29.8
2019-02-04T02:33:58.213Z,29.8
2019-02-04T02:34:51.582Z,29.9
2019-02-04T02:35:38.827Z,29.9
2019-02-04T02:36:28.331Z,30
2019-02-04T02:37:19.327Z,30.1
2019-02-04T02:38:08.829Z,30.1
2019-02-04T02:38:59.079Z,30.2
2019-02-04T02:39:48.665Z,30.3
2019-02-04T02:40:39.818Z,30.3
2019-02-04T02:41:30.215Z,30.4
2019-02-04T02:42:19.551Z,30.4
2019-02-04T02:43:12.776Z,30.5
2019-02-04T02:44:02.277Z,30.6
2019-02-04T02:44:49.182Z,30.6
2019-02-04T02:45:39.850Z,30.7
2019-02-04T02:46:29.909Z,30.8
2019-02-04T02:47:19.970Z,30.8
2019-02-04T02:48:09.124Z,30.9
2019-02-04T02:48:59.917Z,31
2019-02-04T02:49:50.704Z,31.1
2019-02-04T02:50:40.165Z,31.1
2019-02-04T02:51:29.932Z,31.2
2019-02-04T02:52:20.566Z,31.3
2019-02-04T02:53:12.999Z,31.3
2019-02-04T02:54:00.665Z,31.4
2019-02-04T02:54:50.595Z,31.5
2019-02-04T02:55:41.037Z,31.6
2019-02-04T02:56:30.963Z,31.7
2019-02-04T02:57:21.147Z,31.8
2019-02-04T02:58:10.942Z,31.8
2019-02-04T02:59:01.338Z,31.9
2019-02-04T02:59:51.073Z,31.9
2019-02-04T03:00:40.673Z,32
2019-02-04T03:01:31.183Z,32.1
2019-02-04T03:02:24.211Z,32.2
2019-02-04T03:03:11.394Z,32.3
2019-02-04T03:04:01.363Z,32.3
2019-02-04T03:04:51.704Z,32.4
2019-02-04T03:08:23.996Z,32.7
2019-02-04T03:09:15.040Z,32.8
2019-02-04T03:10:53.823Z,33
2019-02-04T03:11:43.560Z,33.1
2019-02-04T03:12:35.039Z,33.1
2019-02-04T03:13:24.215Z,33.3
2019-02-04T03:14:14.041Z,33.3
2019-02-04T03:15:04.801Z,33.4
2019-02-04T03:15:53.808Z,33.4
2019-02-04T03:16:44.167Z,33.5
2019-02-04T03:17:33.531Z,33.6
2019-02-04T03:18:26.343Z,33.8
2019-02-04T03:19:14.345Z,33.8
2019-02-04T03:20:04.441Z,33.8
2019-02-04T03:20:53.912Z,33.9
2019-02-04T03:21:45.137Z,34
2019-02-04T03:22:34.300Z,34.1
2019-02-04T03:23:24.747Z,34.2
2019-02-04T03:24:15.067Z,34.3
2019-02-04T03:25:04.917Z,34.3
2019-02-04T03:25:54.633Z,34.4
2019-02-04T03:26:45.282Z,34.5
2019-02-04T03:27:36.906Z,34.6
2019-02-04T03:28:24.962Z,34.6
2019-02-04T03:29:15.022Z,34.7
2019-02-04T03:30:05.424Z,34.8
2019-02-04T03:30:56.163Z,34.8
2019-02-04T03:31:52.322Z,34.8
2019-02-04T03:32:35.169Z,34.9
2019-02-04T03:33:26.077Z,34.9
2019-02-04T03:34:15.289Z,34.9
2019-02-04T03:35:05.510Z,35
2019-02-04T03:35:54.966Z,35.1
2019-02-04T03:36:46.487Z,35.1
2019-02-04T03:37:35.429Z,35.1
2019-02-04T03:38:25.486Z,35.1
2019-02-04T03:39:15.783Z,35.2
2019-02-04T03:40:07.387Z,35.2
2019-02-04T03:40:55.338Z,35.3
2019-02-04T03:41:45.910Z,35.3
2019-02-04T03:42:35.411Z,35.3
2019-02-04T03:43:26.025Z,35.4
2019-02-04T03:44:15.858Z,35.4
2019-02-04T03:45:06.293Z,35.4
2019-02-04T03:45:56.311Z,35.4
2019-02-04T03:46:45.965Z,35.5
2019-02-04T03:47:35.374Z,35.5
2019-02-04T03:48:25.351Z,35.5
2019-02-04T03:49:18.807Z,35.6
2019-02-04T03:50:06.316Z,35.6
2019-02-04T03:50:56.366Z,35.6
2019-02-04T03:51:45.901Z,35.6
2019-02-04T03:52:36.619Z,35.6
2019-02-04T03:53:26.405Z,35.7
2019-02-04T03:54:17.052Z,35.7
2019-02-04T03:55:06.817Z,35.7
2019-02-04T03:55:56.673Z,35.8
2019-02-04T03:56:46.395Z,35.8
2019-02-04T03:57:36.904Z,35.8
2019-02-04T03:58:28.507Z,35.8
2019-02-04T03:59:17.088Z,35.8
2019-02-04T04:00:07.022Z,35.8
2019-02-04T04:00:56.662Z,35.8
2019-02-04T04:01:47.554Z,35.8
2019-02-04T04:02:36.569Z,35.8
2019-02-04T04:03:27.217Z,35.8
2019-02-04T04:04:17.084Z,35.8
2019-02-04T04:05:07.046Z,35.9
2019-02-04T04:05:57.364Z,35.9
2019-02-04T04:06:46.884Z,35.9
2019-02-04T04:07:38.129Z,35.9
2019-02-04T04:08:27.612Z,35.9
2019-02-04T04:09:17.309Z,35.9
2019-02-04T04:10:06.816Z,35.9
2019-02-04T04:10:58.812Z,35.9
2019-02-04T04:11:47.469Z,36
2019-02-04T04:12:37.536Z,36
2019-02-04T04:13:27.704Z,36
2019-02-04T04:14:17.919Z,36
2019-02-04T04:15:07.451Z,36
2019-02-04T04:15:58.044Z,36
2019-02-04T04:16:48.503Z,36
2019-02-04T04:17:38.003Z,36
2019-02-04T04:18:27.858Z,36.1
2019-02-04T04:19:18.576Z,36
2019-02-04T04:20:10.830Z,36.1
2019-02-04T04:20:58.623Z,36.1
2019-02-04T04:21:48.398Z,36.1
2019-02-04T04:22:39.014Z,36.1
2019-02-04T04:23:28.758Z,36.1
2019-02-04T04:24:18.568Z,36.1
2019-02-04T04:25:24.018Z,36.1
2019-02-04T04:25:59.760Z,36.1
2019-02-04T04:26:49.295Z,36.1
2019-02-04T04:27:39.182Z,36.1
2019-02-04T04:28:29.440Z,36.1
2019-02-04T04:29:22.040Z,36.1
2019-02-04T04:30:09.283Z,36.1
2019-02-04T04:30:59.535Z,36.1
2019-02-04T04:31:49.344Z,36.1
2019-02-04T04:32:39.692Z,36.1
2019-02-04T04:33:29.568Z,36.1
2019-02-04T04:34:19.370Z,36.1
2019-02-04T04:35:10.558Z,36.1
2019-02-04T04:35:59.920Z,36.1
2019-02-04T04:36:49.995Z,36.1
2019-02-04T04:37:40.060Z,36.1
2019-02-04T04:38:32.132Z,36.1
2019-02-04T04:39:20.152Z,36.1
2019-02-04T04:40:09.941Z,36.1
2019-02-04T04:41:00.276Z,36.1
2019-02-04T04:41:49.609Z,36.1
2019-02-04T04:42:39.857Z,36.1
2019-02-04T04:43:30.210Z,36.1
2019-02-04T04:44:21.142Z,36.1
2019-02-04T04:45:10.574Z,36.1
2019-02-04T04:46:00.337Z,36.1
2019-02-04T04:46:50.132Z,36.1
2019-02-04T04:47:43.178Z,36.1
2019-02-04T04:48:32.379Z,36.1
2019-02-04T04:49:20.599Z,36.1
2019-02-04T04:50:10.904Z,36.1
2019-02-04T04:51:00.129Z,36.1
2019-02-04T04:51:50.201Z,36.1
2019-02-04T04:52:40.859Z,36.1
2019-02-04T04:53:30.591Z,36.1
2019-02-04T04:54:20.636Z,36.1
2019-02-04T04:55:10.439Z,36.1
2019-02-04T04:56:01.061Z,36.1
2019-02-04T04:56:53.223Z,36.1
2019-02-04T04:57:41.419Z,36.1
2019-02-04T04:58:31.516Z,36.1
2019-02-04T04:59:21.288Z,36.1
2019-02-04T05:00:11.166Z,36.1
2019-02-04T05:01:01.413Z,36.1
2019-02-04T05:01:51.408Z,36.1
2019-02-04T05:02:41.643Z,36.1
2019-02-04T05:03:31.553Z,36.1
2019-02-04T05:04:21.298Z,36.1
2019-02-04T05:05:11.685Z,36.1
2019-02-04T05:06:03.880Z,36.1
2019-02-04T05:06:52.065Z,36.1
2019-02-04T05:07:41.834Z,36.1
2019-02-04T05:08:31.956Z,36
2019-02-04T05:09:22.560Z,36
2019-02-04T05:10:12.003Z,36
2019-02-04T05:11:02.360Z,36
2019-02-04T05:11:52.407Z,36
2019-02-04T05:12:42.193Z,35.9
2019-02-04T05:13:32.305Z,36
2019-02-04T05:14:22.035Z,35.9
2019-02-04T05:15:14.124Z,35.9
2019-02-04T05:16:02.682Z,35.9
2019-02-04T05:16:52.752Z,35.9
2019-02-04T05:17:42.552Z,35.9
2019-02-04T05:18:43.712Z,35.9
2019-02-04T05:19:22.682Z,35.9
2019-02-04T05:20:12.982Z,35.9
2019-02-04T05:21:03.042Z,35.9
2019-02-04T05:21:52.857Z,35.9
2019-02-04T05:22:42.926Z,35.9
2019-02-04T05:23:32.960Z,35.9
2019-02-04T05:24:24.427Z,35.9
2019-02-04T05:25:13.356Z,35.9
2019-02-04T05:26:02.855Z,35.8
2019-02-04T05:26:53.195Z,35.8
2019-02-04T05:27:45.939Z,35.8
2019-02-04T05:28:33.559Z,35.8
2019-02-04T05:29:23.379Z,35.8
2019-02-04T05:30:13.448Z,35.8
2019-02-04T05:31:03.845Z,35.8
2019-02-04T05:31:53.798Z,35.8
2019-02-04T05:32:43.286Z,35.8
2019-02-04T05:33:33.711Z,35.8
2019-02-04T05:34:23.953Z,35.8
2019-02-04T05:35:13.474Z,35.8
2019-02-04T05:36:04.091Z,35.7
2019-02-04T05:36:56.089Z,35.7
2019-02-04T05:37:43.932Z,35.7
2019-02-04T05:38:34.018Z,35.7
2019-02-04T05:39:24.031Z,35.7
2019-02-04T05:40:14.153Z,35.7
2019-02-04T05:41:04.170Z,35.7
2019-02-04T05:41:54.256Z,35.6
2019-02-04T05:42:44.621Z,35.6
2019-02-04T05:43:34.626Z,35.6
2019-02-04T05:44:24.653Z,35.6
2019-02-04T05:45:14.529Z,35.6
2019-02-04T05:46:06.680Z,35.6
2019-02-04T05:46:57.318Z,35.6
2019-02-04T05:47:44.913Z,35.6
2019-02-04T05:48:34.767Z,35.6
2019-02-04T05:49:24.764Z,35.5
2019-02-04T05:50:17.986Z,35.5
2019-02-04T05:51:04.866Z,35.5
2019-02-04T05:51:57.878Z,35.5
2019-02-04T05:52:44.700Z,35.5
2019-02-04T05:53:35.081Z,35.5
2019-02-04T05:54:25.063Z,35.5
2019-02-04T05:55:17.769Z,35.5
2019-02-04T05:56:05.287Z,35.5
2019-02-04T05:56:55.219Z,35.5
2019-02-04T05:57:45.582Z,35.5
2019-02-04T05:58:39.544Z,35.4
2019-02-04T05:59:25.718Z,35.4
2019-02-04T06:00:15.222Z,35.4
2019-02-04T06:01:05.809Z,35.4
2019-02-04T06:01:55.334Z,35.4
2019-02-04T06:02:45.688Z,35.4
2019-02-04T06:03:35.429Z,35.4
2019-02-04T06:06:23.396Z,35.3
2019-02-04T06:07:16.484Z,35.3
2019-02-04T06:08:03.216Z,35.3
2019-02-04T06:08:53.809Z,35.3
2019-02-04T06:09:43.938Z,35.3
2019-02-04T06:10:33.646Z,35.3
2019-02-04T06:11:23.726Z,35.3
2019-02-04T06:12:13.618Z,35.3
2019-02-04T06:13:18.857Z,35.3
2019-02-04T06:14:08.082Z,35.2
2019-02-04T06:14:46.493Z,35.2
2019-02-04T06:15:33.744Z,35.2
2019-02-04T06:16:24.073Z,35.2
2019-02-04T06:17:13.863Z,35.2
2019-02-04T06:18:04.063Z,35.1
2019-02-04T06:19:05.886Z,35.1
2019-02-04T06:19:43.476Z,35.1
2019-02-04T06:20:34.361Z,35.1
2019-02-04T06:21:24.126Z,35.1
2019-02-04T06:22:14.217Z,35.1
2019-02-04T06:23:04.705Z,35.1
2019-02-04T06:23:56.155Z,35.1
2019-02-04T06:24:44.675Z,35.1
2019-02-04T06:25:34.758Z,35.2
2019-02-04T06:26:24.828Z,35.2
2019-02-04T06:27:17.125Z,35.3
2019-02-04T06:28:04.330Z,35.3
2019-02-04T06:28:54.664Z,35.3
2019-02-04T06:29:45.310Z,35.3
2019-02-04T06:30:35.045Z,35.3
2019-02-04T06:31:25.220Z,35.3
2019-02-04T06:32:15.465Z,35.3
2019-02-04T06:33:06.502Z,35.3
2019-02-04T06:33:55.293Z,35.3
2019-02-04T06:35:18.602Z,35.3
2019-02-04T06:35:34.842Z,35.3
2019-02-04T06:36:25.837Z,35.3
2019-02-04T06:37:15.209Z,35.3
2019-02-04T06:38:05.694Z,35.3
2019-02-04T06:38:55.344Z,35.3
2019-02-04T06:39:45.858Z,35.3
2019-02-04T06:40:35.612Z,35.3
2019-02-04T06:41:26.100Z,35.2
2019-02-04T06:42:17.346Z,35.2
2019-02-04T06:43:05.916Z,35.1
2019-02-04T06:43:55.689Z,35.1
2019-02-04T06:44:46.291Z,35.1
2019-02-04T06:45:37.807Z,35.1
2019-02-04T06:46:25.923Z,35
2019-02-04T06:47:16.183Z,35
2019-02-04T06:48:05.869Z,35
2019-02-04T06:48:55.929Z,34.9
2019-02-04T06:49:46.123Z,34.9
2019-02-04T06:50:36.594Z,34.9
2019-02-04T06:51:27.459Z,34.9
2019-02-04T06:52:16.579Z,34.8
2019-02-04T06:53:07.223Z,34.8
2019-02-04T06:53:56.104Z,34.8
2019-02-04T06:54:48.421Z,34.8
2019-02-04T06:55:36.645Z,34.8
2019-02-04T06:56:27.136Z,34.8
2019-02-04T06:57:16.112Z,34.8
2019-02-04T06:58:21.399Z,34.8
2019-02-04T06:58:56.183Z,34.8
2019-02-04T06:59:46.809Z,34.8
2019-02-04T07:00:38.688Z,34.7
2019-02-04T07:01:27.480Z,34.7
2019-02-04T07:02:16.197Z,34.7
2019-02-04T07:03:07.128Z,34.7
2019-02-04T07:03:59.235Z,34.7
2019-02-04T07:06:24.333Z,34.6
2019-02-04T07:07:15.750Z,34.6
2019-02-04T07:08:03.197Z,34.6
2019-02-04T07:08:53.557Z,34.6
2019-02-04T07:09:46.358Z,34.6
2019-02-04T07:10:33.755Z,34.6
2019-02-04T07:11:23.962Z,34.6
2019-02-04T07:12:13.784Z,34.6
2019-02-04T07:13:03.337Z,34.6
2019-02-04T07:13:53.885Z,34.5
2019-02-04T07:14:43.661Z,34.5
2019-02-04T07:15:34.963Z,34.5
2019-02-04T07:16:24.399Z,34.5
2019-02-04T07:17:14.072Z,34.4
2019-02-04T07:18:07.377Z,34.5
2019-02-04T07:18:55.919Z,34.4
2019-02-04T07:19:43.994Z,34.4
2019-02-04T07:20:34.669Z,34.4
2019-02-04T07:21:26.239Z,34.4
2019-02-04T07:22:13.872Z,34.4
2019-02-04T07:23:04.074Z,34.4
2019-02-04T07:23:54.266Z,34.4
2019-02-04T07:24:48.869Z,34.3
2019-02-04T07:25:34.409Z,34.4
2019-02-04T07:26:24.541Z,34.3
2019-02-04T07:27:13.951Z,34.3
2019-02-04T07:28:05.556Z,34.3
2019-02-04T07:28:55.092Z,34.3
2019-02-04T07:29:44.944Z,34.2
2019-02-04T07:30:35.289Z,34.1
2019-02-04T07:31:24.586Z,34.1
2019-02-04T07:32:14.846Z,34.1
2019-02-04T07:33:04.347Z,34.1
2019-02-04T07:33:56.653Z,34
2019-02-04T07:34:45.388Z,34
2019-02-04T07:35:35.321Z,34
2019-02-04T07:36:25.666Z,34
2019-02-04T07:37:14.933Z,33.9
2019-02-04T07:38:04.993Z,33.9
2019-02-04T07:38:55.291Z,33.9
2019-02-04T07:39:45.333Z,33.9
2019-02-04T07:40:34.880Z,33.9
2019-02-04T07:41:25.830Z,33.8
2019-02-04T07:42:16.135Z,33.8
2019-02-04T07:43:08.541Z,33.8
2019-02-04T07:43:55.483Z,33.8
2019-02-04T07:44:46.270Z,33.8
2019-02-04T07:45:35.473Z,33.7
2019-02-04T07:46:30.343Z,33.8
2019-02-04T07:47:15.853Z,33.7
2019-02-04T07:48:05.658Z,33.7
2019-02-04T07:48:55.980Z,33.6
2019-02-04T07:49:46.315Z,33.6
2019-02-04T07:50:36.667Z,33.6
2019-02-04T07:51:26.414Z,33.6
2019-02-04T07:52:18.932Z,33.6
2019-02-04T07:53:06.555Z,33.6
2019-02-04T07:53:56.612Z,33.6
2019-02-04T07:54:46.944Z,33.6
2019-02-04T07:55:36.417Z,33.6
2019-02-04T07:56:26.223Z,33.5
2019-02-04T07:57:17.152Z,33.4
2019-02-04T07:58:06.352Z,33.4
2019-02-04T07:58:56.957Z,33.4
2019-02-04T07:59:46.742Z,33.4
2019-02-04T08:00:37.079Z,33.3
2019-02-04T08:01:28.976Z,33.3
2019-02-04T08:02:16.216Z,33.3
2019-02-04T08:03:07.243Z,33.3
2019-02-04T08:03:57.289Z,33.3
2019-02-04T08:04:47.673Z,33.3
2019-02-04T08:05:36.879Z,33.3
2019-02-04T08:06:27.179Z,33.2
2019-02-04T08:07:16.661Z,33.1
2019-02-04T08:08:07.588Z,33.1
2019-02-04T08:08:57.513Z,33.1
2019-02-04T08:09:47.236Z,33.1
2019-02-04T08:10:39.571Z,33.1
2019-02-04T08:11:27.305Z,33.1
2019-02-04T08:12:17.069Z,33.1
2019-02-04T08:13:06.576Z,33.1
2019-02-04T08:13:58.801Z,33
2019-02-04T08:14:50.989Z,33
2019-02-04T08:15:37.853Z,32.9
2019-02-04T08:16:28.169Z,32.9
2019-02-04T08:17:18.501Z,32.9
2019-02-04T08:18:08.328Z,32.9
2019-02-04T08:18:58.062Z,32.9
2019-02-04T08:19:53.047Z,32.8
2019-02-04T08:20:38.513Z,32.8
2019-02-04T08:21:27.393Z,32.8
2019-02-04T08:22:18.641Z,32.8
2019-02-04T08:23:08.538Z,32.7
2019-02-04T08:23:58.409Z,32.8
2019-02-04T08:24:48.740Z,32.7
2019-02-04T08:25:38.870Z,32.6
2019-02-04T08:26:28.450Z,32.5
2019-02-04T08:27:18.640Z,32.5
2019-02-04T08:28:09.242Z,32.4
2019-02-04T08:29:00.465Z,32.3
2019-02-04T08:29:49.435Z,32.1
2019-02-04T08:30:42.867Z,31.9
2019-02-04T08:31:28.747Z,31.6
2019-02-04T08:32:20.500Z,31.4
2019-02-04T08:33:08.827Z,31
2019-02-04T08:33:59.162Z,30.7
2019-02-04T08:34:49.574Z,30.4
2019-02-04T08:35:40.019Z,30
2019-02-04T08:36:29.343Z,29.6
2019-02-04T08:37:19.157Z,29.1
2019-02-04T08:38:11.539Z,28.8
2019-02-04T08:38:59.273Z,28.3
2019-02-04T08:39:49.455Z,27.9
2019-02-04T08:40:39.156Z,27.5
2019-02-04T08:41:29.781Z,27.1
2019-02-04T08:42:19.604Z,26.7
2019-02-04T08:43:09.971Z,26.4
2019-02-04T08:44:00.652Z,26.1
2019-02-04T08:44:49.913Z,25.8
2019-02-04T08:45:40.385Z,25.5
2019-02-04T08:46:30.075Z,25.3
2019-02-04T08:47:29.439Z,24.9
2019-02-04T08:48:10.396Z,24.7
2019-02-04T08:49:00.446Z,24.6
2019-02-04T08:50:04.921Z,24.3
2019-02-04T08:50:40.427Z,24.1
2019-02-04T08:51:30.373Z,23.9
2019-02-04T08:52:20.816Z,23.8
2019-02-04T08:53:12.224Z,23.6
2019-02-04T08:54:00.831Z,23.4
2019-02-04T08:54:50.658Z,23.3
2019-02-04T08:55:40.973Z,23.1
2019-02-04T08:56:30.486Z,22.9
2019-02-04T08:57:20.325Z,22.8
2019-02-04T08:58:11.468Z,22.7
2019-02-04T08:59:00.750Z,22.6
2019-02-04T08:59:50.535Z,22.5
2019-02-04T09:00:41.193Z,22.4
2019-02-04T09:01:31.670Z,22.3
2019-02-04T09:02:24.313Z,22.2
2019-02-04T09:03:11.293Z,22.1
2019-02-04T09:04:01.775Z,20.9
2019-02-04T09:04:51.610Z,23.1
2019-02-04T09:05:41.355Z,24.4
2019-02-04T09:06:31.516Z,25.6
2019-02-04T09:07:21.517Z,27.1
2019-02-04T09:08:12.812Z,27.9
2019-02-04T09:09:01.839Z,28.3
2019-02-04T09:09:51.137Z,28.1
2019-02-04T09:10:42.020Z,27.7
2019-02-04T09:11:33.402Z,27.3
2019-02-04T09:12:21.591Z,27.1
2019-02-04T09:13:11.602Z,26.8
2019-02-04T09:14:01.942Z,26.4
2019-02-04T09:14:52.256Z,26.2
2019-02-04T09:15:42.374Z,25.9
2019-02-04T09:16:31.632Z,25.7
2019-02-04T09:17:23.897Z,25.4
2019-02-04T09:18:11.112Z,25.2
2019-02-04T09:19:02.795Z,25
2019-02-04T09:19:52.181Z,24.8
2019-02-04T09:20:43.022Z,24.6
2019-02-04T09:21:32.576Z,24.4
2019-02-04T09:22:22.886Z,24.3
2019-02-04T09:23:12.794Z,24.1
2019-02-04T09:24:02.901Z,23.9
2019-02-04T09:24:52.413Z,23.8
2019-02-04T09:25:42.533Z,23.6
2019-02-04T09:26:34.966Z,23.5
2019-02-04T09:27:22.896Z,23.4
2019-02-04T09:28:12.440Z,23.3
2019-02-04T09:29:03.276Z,22.9
2019-02-04T09:29:53.607Z,23.6
2019-02-04T09:30:43.661Z,25.9
2019-02-04T09:31:33.128Z,27.1
2019-02-04T09:32:24.538Z,28.7
2019-02-04T09:33:13.590Z,29.7
2019-02-04T09:34:03.308Z,30
2019-02-04T09:34:53.398Z,29.9
2019-02-04T09:35:44.576Z,29.6
2019-02-04T09:36:33.793Z,29.4
2019-02-04T09:37:23.692Z,29.4
2019-02-04T09:38:13.442Z,29.6
2019-02-04T09:39:04.151Z,29.7
2019-02-04T09:39:54.144Z,29.9
2019-02-04T09:40:44.155Z,30.1
2019-02-04T09:41:34.981Z,30.2
2019-02-04T09:42:24.230Z,30.4
2019-02-04T09:43:14.595Z,30.5
2019-02-04T09:44:03.574Z,30.6
2019-02-04T09:44:56.071Z,30.7
2019-02-04T09:45:44.468Z,30.8
2019-02-04T09:46:34.756Z,30.9
2019-02-04T09:47:24.438Z,31
2019-02-04T09:48:14.616Z,31.1
2019-02-04T09:49:04.212Z,31.2
2019-02-04T09:49:54.225Z,31.3
2019-02-04T09:50:45.947Z,31.3
2019-02-04T09:51:34.113Z,31.3
2019-02-04T09:52:23.854Z,31.3
2019-02-04T09:53:14.820Z,31.4
2019-02-04T09:54:05.172Z,31.4
2019-02-04T09:54:54.529Z,31.5
2019-02-04T09:55:45.443Z,31.6
2019-02-04T09:56:34.932Z,31.7
2019-02-04T09:57:25.513Z,31.8
2019-02-04T09:58:14.749Z,31.9
2019-02-04T09:59:05.256Z,31.9
2019-02-04T09:59:58.677Z,32
2019-02-04T10:00:45.433Z,32.1
2019-02-04T10:01:35.440Z,32.1
2019-02-04T10:02:25.225Z,32.1
2019-02-04T10:03:16.201Z,32.2
2019-02-04T10:04:05.677Z,32.2
2019-02-04T10:04:55.668Z,32.3
2019-02-04T10:07:22.413Z,32.3
2019-02-04T10:08:12.574Z,32.3
2019-02-04T10:09:05.071Z,32.3
2019-02-04T10:09:52.863Z,32.3
2019-02-04T10:10:42.963Z,32.3
2019-02-04T10:11:32.978Z,32.3
2019-02-04T10:12:22.833Z,32.4
2019-02-04T10:13:13.301Z,32.4
2019-02-04T10:14:03.641Z,32.4
2019-02-04T10:14:53.244Z,32.4
2019-02-04T10:15:47.529Z,32.4
2019-02-04T10:16:34.543Z,32.4
2019-02-04T10:17:24.377Z,32.4
2019-02-04T10:18:15.852Z,32.4
2019-02-04T10:19:03.526Z,32.4
2019-02-04T10:19:54.575Z,32.4
2019-02-04T10:20:43.963Z,32.3
2019-02-04T10:21:35.590Z,32.3
2019-02-04T10:22:24.570Z,32.3
2019-02-04T10:23:14.272Z,32.3
2019-02-04T10:24:04.675Z,32.3
2019-02-04T10:24:54.727Z,32.3
2019-02-04T10:25:44.385Z,32.3
2019-02-04T10:26:34.648Z,32.3
2019-02-04T10:27:26.451Z,32.3
2019-02-04T10:28:14.857Z,32.2
2019-02-04T10:29:04.689Z,32.2
2019-02-04T10:29:55.422Z,32.2
2019-02-04T10:30:45.522Z,32.1
2019-02-04T10:31:34.851Z,32.1
2019-02-04T10:32:25.122Z,32.1
2019-02-04T10:33:15.613Z,32.1
2019-02-04T10:34:05.512Z,32.1
2019-02-04T10:34:55.544Z,32.1
2019-02-04T10:35:45.873Z,32.1
2019-02-04T10:36:36.058Z,32
2019-02-04T10:37:25.965Z,32
2019-02-04T10:38:18.907Z,32
2019-02-04T10:39:05.596Z,31.9
2019-02-04T10:39:57.596Z,31.9
2019-02-04T10:40:45.658Z,31.9
2019-02-04T10:41:34.756Z,31.9
2019-02-04T10:42:26.255Z,31.9
2019-02-04T10:43:15.906Z,31.9
2019-02-04T10:44:06.067Z,31.9
2019-02-04T10:44:55.785Z,31.9
2019-02-04T10:45:47.423Z,31.8
2019-02-04T10:46:36.197Z,31.8
2019-02-04T10:47:26.126Z,31.8
2019-02-04T10:48:16.854Z,31.8
2019-02-04T10:49:07.336Z,31.8
2019-02-04T10:49:56.288Z,31.8
2019-02-04T10:50:52.893Z,31.8
2019-02-04T10:51:37.023Z,31.8
2019-02-04T10:52:26.650Z,31.8
2019-02-04T10:53:16.887Z,31.8
2019-02-04T10:54:07.128Z,31.8
2019-02-04T10:54:58.715Z,31.8
2019-02-04T10:55:47.002Z,31.8
2019-02-04T10:56:36.732Z,31.8
2019-02-04T10:57:26.899Z,31.7
2019-02-04T10:58:17.766Z,31.8
2019-02-04T10:59:07.644Z,31.8
2019-02-04T10:59:57.208Z,31.7
2019-02-04T11:00:47.375Z,31.7
2019-02-04T11:01:37.175Z,31.7
2019-02-04T11:02:27.605Z,31.7
2019-02-04T11:03:19.918Z,31.7
2019-02-04T11:04:08.311Z,31.7
2019-02-04T11:04:57.323Z,31.7
2019-02-04T11:05:48.368Z,31.8
2019-02-04T11:06:36.994Z,31.7
2019-02-04T11:07:28.735Z,31.8
2019-02-04T11:08:18.153Z,31.7
2019-02-04T11:09:07.697Z,31.7
2019-02-04T11:09:58.444Z,31.8
2019-02-04T11:10:47.769Z,31.7
2019-02-04T11:11:38.315Z,31.7
2019-02-04T11:12:28.216Z,31.7
2019-02-04T11:13:19.566Z,31.7
2019-02-04T11:14:08.325Z,31.7
2019-02-04T11:14:58.183Z,31.7
2019-02-04T11:15:48.033Z,31.7
2019-02-04T11:16:40.113Z,31.7
2019-02-04T11:17:28.323Z,31.7
2019-02-04T11:18:18.509Z,31.7
2019-02-04T11:19:07.797Z,31.7